Maersk Essen — V7UQ8 — position and weather

sailwx.info

Track history (hours):
 
Tides and Currents Weather Stations Pressure Air Temp Water Temp Dewpoint Dewpoint Depression Visibility Wind Speed Wind Dir Waves Ship Positions

Maersk Essen

Last reported at 2014-Jul-27 04:05 UTC. Time now 2014-Jul-28 04:23 UTC.
Position N 39°24' W 009°52'.

Length 367 m; draft 14.9 m.

Type: Ship (hazmat cat A). MMSI: 538004007.

Date/timePositionNaut miles runAvg speedWind from/ knotsBaromVisibWave heightAir tempDewpointWater temp
2014-Jul-27 04:05N 39°24' W 009°52'1120.7
2014-Jul-27 03:33N 39°13' W 009°52'2220.5
2014-Jul-27 02:30N 38°52' W 009°53'2020.5
2014-Jul-27 01:32N 38°32' W 009°50'2120.7
2014-Jul-27 00:32N 38°12' W 009°43'2020.3
2014-Jul-26 23:33N 37°53' W 009°38'2120.5
2014-Jul-26 22:32N 37°32' W 009°32'2020.5
2014-Jul-26 21:33N 37°13' W 009°25'2020.2
2014-Jul-26 20:33N 36°53' W 009°19'2019.8
2014-Jul-26 19:33N 36°42' W 008°59'2120.6
2014-Jul-26 18:33N 36°36' W 008°34'2020.4
2014-Jul-26 17:33N 36°30' W 008°10'2120.6
2014-Jul-26 16:33N 36°23' W 007°46'2020.4
2014-Jul-26 15:33N 36°17' W 007°22'2020.3
2014-Jul-26 14:33N 36°10' W 006°58'7919.6
2014-Jul-26 10:33N 36°01' W 005°21'17020.5
2014-Jul-26 02:14N 36°28' W 001°53'2521.4
2014-Jul-26 01:05N 36°33' W 001°23'1421.3
2014-Jul-26 00:26N 36°37' W 001°07'2221.2
2014-Jul-25 23:25N 36°42' W 000°40'4021.2
2014-Jul-25 21:32N 36°50' E 000°08'16921.1
2014-Jul-25 13:32N 37°28' E 003°35'2121.5
2014-Jul-25 12:33N 37°32' E 004°01'6421.4
2014-Jul-25 09:33N 37°41' E 005°21'2422.7
2014-Jul-25 08:29N 37°41' E 005°51'4421.0
2014-Jul-25 06:24N 37°42' E 006°47'2621.4
2014-Jul-25 05:12N 37°42' E 007°19'1420.4
2014-Jul-25 04:33N 37°43' E 007°36'2423.6
2014-Jul-25 03:31N 37°43' E 008°07'1818.9
2014-Jul-25 02:33N 37°43' E 008°30'2020.7
2014-Jul-25 01:33N 37°43' E 008°56'2120.5
2014-Jul-25 00:33N 37°42' E 009°22'2020.2
2014-Jul-24 23:33N 37°41' E 009°48'2020.4
2014-Jul-24 22:33N 37°39' E 010°13'2020.6
2014-Jul-24 21:33N 37°36' E 010°39'2121.1
2014-Jul-24 20:33N 37°30' E 011°04'5021.4
2014-Jul-24 18:14N 37°05' E 011°59'1421.0
2014-Jul-24 17:33N 37°01' E 012°16'2120.6
2014-Jul-24 16:33N 36°55' E 012°40'2121.2
2014-Jul-24 15:33N 36°48' E 013°05'2121.0
2014-Jul-24 14:33N 36°41' E 013°30'2221.0
2014-Jul-24 13:30N 36°34' E 013°56'2020.8
2014-Jul-24 12:33N 36°27' E 014°19'2020.3
2014-Jul-24 11:33N 36°21' E 014°43'2020.4
2014-Jul-24 10:33N 36°14' E 015°07'65320.9
2014-Jul-23 03:22N 32°51' E 027°40'8421.9
2014-Jul-22 23:33N 32°28' E 029°15'2121.4
2014-Jul-22 22:33N 32°22' E 029°40'2121.1
2014-Jul-22 21:33N 32°16' E 030°04'2120.7
2014-Jul-22 20:33N 32°10' E 030°27'2120.6
2014-Jul-22 19:32N 32°03' E 030°51'2020.7
2014-Jul-22 18:33N 31°57' E 031°13'2220.7
2014-Jul-22 17:31N 31°51' E 031°38'2020.4
2014-Jul-22 16:33N 31°45' E 031°60'2120.3
2014-Jul-22 15:33N 31°30' E 032°17'1413.9
2014-Jul-22 14:33N 31°17' E 032°22'10 9.7
2014-Jul-22 13:33N 31°08' E 032°19'10 9.8
2014-Jul-22 12:33N 30°58' E 032°19'  
Track history (hours):
 
Tides and Currents Weather Stations Pressure Air Temp Water Temp Dewpoint Dewpoint Depression Visibility Wind Speed Wind Dir Waves Ship Positions

Maersk Essen

Last reported at 2014-Jul-27 04:05 UTC. Time now 2014-Jul-28 04:23 UTC.
Position N 39°24' W 009°52'.

Length 367 m; draft 14.9 m.

Type: Ship (hazmat cat A). MMSI: 538004007.

Date/timePositionNaut miles runAvg speedWind from/ knotsBaromVisibWave heightAir tempDewpointWater temp
2014-Jul-27 04:05N 39°24' W 009°52'1120.7
2014-Jul-27 03:33N 39°13' W 009°52'2220.5
2014-Jul-27 02:30N 38°52' W 009°53'2020.5
2014-Jul-27 01:32N 38°32' W 009°50'2120.7
2014-Jul-27 00:32N 38°12' W 009°43'2020.3
2014-Jul-26 23:33N 37°53' W 009°38'2120.5
2014-Jul-26 22:32N 37°32' W 009°32'2020.5
2014-Jul-26 21:33N 37°13' W 009°25'2020.2
2014-Jul-26 20:33N 36°53' W 009°19'2019.8
2014-Jul-26 19:33N 36°42' W 008°59'2120.6
2014-Jul-26 18:33N 36°36' W 008°34'2020.4
2014-Jul-26 17:33N 36°30' W 008°10'2120.6
2014-Jul-26 16:33N 36°23' W 007°46'2020.4
2014-Jul-26 15:33N 36°17' W 007°22'2020.3
2014-Jul-26 14:33N 36°10' W 006°58'7919.6
2014-Jul-26 10:33N 36°01' W 005°21'17020.5
2014-Jul-26 02:14N 36°28' W 001°53'2521.4
2014-Jul-26 01:05N 36°33' W 001°23'1421.3
2014-Jul-26 00:26N 36°37' W 001°07'2221.2
2014-Jul-25 23:25N 36°42' W 000°40'4021.2
2014-Jul-25 21:32N 36°50' E 000°08'16921.1
2014-Jul-25 13:32N 37°28' E 003°35'2121.5
2014-Jul-25 12:33N 37°32' E 004°01'6421.4
2014-Jul-25 09:33N 37°41' E 005°21'2422.7
2014-Jul-25 08:29N 37°41' E 005°51'4421.0
2014-Jul-25 06:24N 37°42' E 006°47'2621.4
2014-Jul-25 05:12N 37°42' E 007°19'1420.4
2014-Jul-25 04:33N 37°43' E 007°36'2423.6
2014-Jul-25 03:31N 37°43' E 008°07'1818.9
2014-Jul-25 02:33N 37°43' E 008°30'2020.7
2014-Jul-25 01:33N 37°43' E 008°56'2120.5
2014-Jul-25 00:33N 37°42' E 009°22'2020.2
2014-Jul-24 23:33N 37°41' E 009°48'2020.4
2014-Jul-24 22:33N 37°39' E 010°13'2020.6
2014-Jul-24 21:33N 37°36' E 010°39'2121.1
2014-Jul-24 20:33N 37°30' E 011°04'5021.4
2014-Jul-24 18:14N 37°05' E 011°59'1421.0
2014-Jul-24 17:33N 37°01' E 012°16'2120.6
2014-Jul-24 16:33N 36°55' E 012°40'2121.2
2014-Jul-24 15:33N 36°48' E 013°05'2121.0
2014-Jul-24 14:33N 36°41' E 013°30'2221.0
2014-Jul-24 13:30N 36°34' E 013°56'2020.8
2014-Jul-24 12:33N 36°27' E 014°19'2020.3
2014-Jul-24 11:33N 36°21' E 014°43'2020.4
2014-Jul-24 10:33N 36°14' E 015°07'65320.9
2014-Jul-23 03:22N 32°51' E 027°40'8421.9
2014-Jul-22 23:33N 32°28' E 029°15'2121.4
2014-Jul-22 22:33N 32°22' E 029°40'2121.1
2014-Jul-22 21:33N 32°16' E 030°04'2120.7
2014-Jul-22 20:33N 32°10' E 030°27'2120.6
2014-Jul-22 19:32N 32°03' E 030°51'2020.7
2014-Jul-22 18:33N 31°57' E 031°13'2220.7
2014-Jul-22 17:31N 31°51' E 031°38'2020.4
2014-Jul-22 16:33N 31°45' E 031°60'2120.3
2014-Jul-22 15:33N 31°30' E 032°17'1413.9
2014-Jul-22 14:33N 31°17' E 032°22'10 9.7
2014-Jul-22 13:33N 31°08' E 032°19'10 9.8
2014-Jul-22 12:33N 30°58' E 032°19'  

Dump ship's entire track history